sensor_id;sensor_type;location;lat;lon;timestamp;P1;durP1;ratioP1;P2;durP2;ratioP2
71288;SDS011;59068;52.502;9.860;2022-07-11T00:01:38;2.27;;;0.70;;
71288;SDS011;59068;52.502;9.860;2022-07-11T00:04:04;0.77;;;0.50;;
71288;SDS011;59068;52.502;9.860;2022-07-11T00:06:29;1.03;;;0.70;;
71288;SDS011;59068;52.502;9.860;2022-07-11T00:08:54;1.70;;;0.80;;
71288;SDS011;59068;52.502;9.860;2022-07-11T00:11:20;0.77;;;0.40;;
71288;SDS011;59068;52.502;9.860;2022-07-11T00:13:45;0.50;;;0.50;;
71288;SDS011;59068;52.502;9.860;2022-07-11T00:16:11;1.70;;;0.50;;
71288;SDS011;59068;52.502;9.860;2022-07-11T00:18:36;0.87;;;0.60;;
71288;SDS011;59068;52.502;9.860;2022-07-11T00:21:01;1.10;;;0.50;;
71288;SDS011;59068;52.502;9.860;2022-07-11T00:23:27;0.40;;;0.40;;
71288;SDS011;59068;52.502;9.860;2022-07-11T00:25:52;1.67;;;0.70;;
71288;SDS011;59068;52.502;9.860;2022-07-11T00:28:18;1.97;;;1.00;;
71288;SDS011;59068;52.502;9.860;2022-07-11T00:30:43;0.70;;;0.70;;
71288;SDS011;59068;52.502;9.860;2022-07-11T00:33:10;0.97;;;0.80;;
71288;SDS011;59068;52.502;9.860;2022-07-11T00:35:35;2.30;;;0.80;;
71288;SDS011;59068;52.502;9.860;2022-07-11T00:38:01;0.63;;;0.53;;
71288;SDS011;59068;52.502;9.860;2022-07-11T00:40:26;2.30;;;0.90;;
71288;SDS011;59068;52.502;9.860;2022-07-11T00:42:52;0.67;;;0.67;;
71288;SDS011;59068;52.502;9.860;2022-07-11T00:45:17;0.83;;;0.77;;
71288;SDS011;59068;52.502;9.860;2022-07-11T00:47:42;1.27;;;0.80;;
71288;SDS011;59068;52.502;9.860;2022-07-11T00:50:08;2.07;;;0.90;;
71288;SDS011;59068;52.502;9.860;2022-07-11T00:52:34;1.83;;;0.80;;
71288;SDS011;59068;52.502;9.860;2022-07-11T00:54:59;1.63;;;0.90;;
71288;SDS011;59068;52.502;9.860;2022-07-11T00:57:25;0.93;;;0.80;;
71288;SDS011;59068;52.502;9.860;2022-07-11T00:59:51;0.60;;;0.60;;
71288;SDS011;59068;52.502;9.860;2022-07-11T01:02:17;2.23;;;0.77;;
71288;SDS011;59068;52.502;9.860;2022-07-11T01:04:42;1.30;;;0.93;;
71288;SDS011;59068;52.502;9.860;2022-07-11T01:07:07;1.53;;;0.80;;
71288;SDS011;59068;52.502;9.860;2022-07-11T01:09:33;0.53;;;0.53;;
71288;SDS011;59068;52.502;9.860;2022-07-11T01:11:58;1.33;;;0.70;;
71288;SDS011;59068;52.502;9.860;2022-07-11T01:14:24;0.67;;;0.63;;
71288;SDS011;59068;52.502;9.860;2022-07-11T01:16:49;0.80;;;0.80;;
71288;SDS011;59068;52.502;9.860;2022-07-11T01:19:16;1.10;;;0.80;;
71288;SDS011;59068;52.502;9.860;2022-07-11T01:21:42;1.50;;;0.87;;
71288;SDS011;59068;52.502;9.860;2022-07-11T01:24:08;1.13;;;0.50;;
71288;SDS011;59068;52.502;9.860;2022-07-11T01:26:34;1.33;;;0.70;;
71288;SDS011;59068;52.502;9.860;2022-07-11T01:29:06;2.40;;;0.77;;
71288;SDS011;59068;52.502;9.860;2022-07-11T01:31:40;0.90;;;0.53;;
71288;SDS011;59068;52.502;9.860;2022-07-11T01:34:06;0.50;;;0.50;;
71288;SDS011;59068;52.502;9.860;2022-07-11T01:36:31;0.97;;;0.57;;
71288;SDS011;59068;52.502;9.860;2022-07-11T01:38:57;1.23;;;0.70;;
71288;SDS011;59068;52.502;9.860;2022-07-11T01:41:22;0.83;;;0.60;;
71288;SDS011;59068;52.502;9.860;2022-07-11T01:43:48;0.70;;;0.70;;
71288;SDS011;59068;52.502;9.860;2022-07-11T01:46:13;1.13;;;0.50;;
71288;SDS011;59068;52.502;9.860;2022-07-11T01:48:40;1.80;;;0.50;;
71288;SDS011;59068;52.502;9.860;2022-07-11T01:51:05;0.60;;;0.60;;
71288;SDS011;59068;52.502;9.860;2022-07-11T01:53:31;1.07;;;0.70;;
71288;SDS011;59068;52.502;9.860;2022-07-11T01:55:56;1.57;;;0.73;;
71288;SDS011;59068;52.502;9.860;2022-07-11T01:58:22;0.97;;;0.80;;
71288;SDS011;59068;52.502;9.860;2022-07-11T02:00:47;1.23;;;0.90;;
71288;SDS011;59068;52.502;9.860;2022-07-11T02:03:13;0.90;;;0.77;;
71288;SDS011;59068;52.502;9.860;2022-07-11T02:05:38;1.70;;;1.00;;
71288;SDS011;59068;52.502;9.860;2022-07-11T02:08:05;2.97;;;0.67;;
71288;SDS011;59068;52.502;9.860;2022-07-11T02:10:38;2.30;;;1.30;;
71288;SDS011;59068;52.502;9.860;2022-07-11T02:13:08;1.13;;;0.90;;
71288;SDS011;59068;52.502;9.860;2022-07-11T02:15:37;1.47;;;0.97;;
71288;SDS011;59068;52.502;9.860;2022-07-11T02:18:03;1.30;;;0.87;;
71288;SDS011;59068;52.502;9.860;2022-07-11T02:20:29;1.10;;;0.90;;
71288;SDS011;59068;52.502;9.860;2022-07-11T02:22:55;1.27;;;1.10;;
71288;SDS011;59068;52.502;9.860;2022-07-11T02:25:21;1.00;;;1.00;;
71288;SDS011;59068;52.502;9.860;2022-07-11T02:27:47;2.43;;;0.97;;
71288;SDS011;59068;52.502;9.860;2022-07-11T02:30:13;1.70;;;1.10;;
71288;SDS011;59068;52.502;9.860;2022-07-11T02:32:38;2.67;;;1.17;;
71288;SDS011;59068;52.502;9.860;2022-07-11T02:35:04;2.50;;;1.20;;
71288;SDS011;59068;52.502;9.860;2022-07-11T02:37:30;2.17;;;1.00;;
71288;SDS011;59068;52.502;9.860;2022-07-11T02:39:56;1.43;;;1.30;;
71288;SDS011;59068;52.502;9.860;2022-07-11T02:42:21;4.33;;;1.40;;
71288;SDS011;59068;52.502;9.860;2022-07-11T02:44:47;1.43;;;1.33;;
71288;SDS011;59068;52.502;9.860;2022-07-11T02:47:12;2.00;;;1.40;;
71288;SDS011;59068;52.502;9.860;2022-07-11T02:49:40;1.40;;;1.30;;
71288;SDS011;59068;52.502;9.860;2022-07-11T02:52:06;1.70;;;1.60;;
71288;SDS011;59068;52.502;9.860;2022-07-11T02:54:32;1.73;;;1.33;;
71288;SDS011;59068;52.502;9.860;2022-07-11T02:56:57;2.70;;;1.77;;
71288;SDS011;59068;52.502;9.860;2022-07-11T02:59:23;2.50;;;1.40;;
71288;SDS011;59068;52.502;9.860;2022-07-11T03:01:48;1.73;;;1.60;;
71288;SDS011;59068;52.502;9.860;2022-07-11T03:04:14;1.73;;;1.30;;
71288;SDS011;59068;52.502;9.860;2022-07-11T03:06:40;1.80;;;1.70;;
71288;SDS011;59068;52.502;9.860;2022-07-11T03:09:06;1.57;;;1.20;;
71288;SDS011;59068;52.502;9.860;2022-07-11T03:11:32;1.87;;;1.50;;
71288;SDS011;59068;52.502;9.860;2022-07-11T03:13:58;1.73;;;1.63;;
71288;SDS011;59068;52.502;9.860;2022-07-11T03:16:25;2.07;;;1.80;;
71288;SDS011;59068;52.502;9.860;2022-07-11T03:18:51;2.07;;;1.87;;
71288;SDS011;59068;52.502;9.860;2022-07-11T03:21:17;2.50;;;2.00;;
71288;SDS011;59068;52.502;9.860;2022-07-11T03:23:42;2.50;;;1.70;;
71288;SDS011;59068;52.502;9.860;2022-07-11T03:26:08;2.37;;;1.50;;
71288;SDS011;59068;52.502;9.860;2022-07-11T03:28:33;2.87;;;2.00;;
71288;SDS011;59068;52.502;9.860;2022-07-11T03:30:58;2.33;;;1.67;;
71288;SDS011;59068;52.502;9.860;2022-07-11T03:33:24;3.30;;;2.03;;
71288;SDS011;59068;52.502;9.860;2022-07-11T03:35:49;2.47;;;1.90;;
71288;SDS011;59068;52.502;9.860;2022-07-11T03:38:17;1.97;;;1.60;;
71288;SDS011;59068;52.502;9.860;2022-07-11T03:40:43;3.73;;;1.73;;
71288;SDS011;59068;52.502;9.860;2022-07-11T03:43:09;2.67;;;1.77;;
71288;SDS011;59068;52.502;9.860;2022-07-11T03:45:34;3.13;;;2.20;;
71288;SDS011;59068;52.502;9.860;2022-07-11T03:48:00;3.87;;;2.23;;
71288;SDS011;59068;52.502;9.860;2022-07-11T03:50:25;3.23;;;2.10;;
71288;SDS011;59068;52.502;9.860;2022-07-11T03:52:51;3.90;;;2.10;;
71288;SDS011;59068;52.502;9.860;2022-07-11T03:55:17;2.40;;;2.10;;
71288;SDS011;59068;52.502;9.860;2022-07-11T03:57:43;3.30;;;2.57;;
71288;SDS011;59068;52.502;9.860;2022-07-11T04:00:08;4.37;;;2.60;;
71288;SDS011;59068;52.502;9.860;2022-07-11T04:02:35;5.23;;;2.40;;
71288;SDS011;59068;52.502;9.860;2022-07-11T04:05:01;3.50;;;2.40;;
71288;SDS011;59068;52.502;9.860;2022-07-11T04:07:27;3.97;;;2.20;;
71288;SDS011;59068;52.502;9.860;2022-07-11T04:09:53;5.43;;;3.00;;
71288;SDS011;59068;52.502;9.860;2022-07-11T04:12:19;2.77;;;1.90;;
71288;SDS011;59068;52.502;9.860;2022-07-11T04:14:44;3.50;;;2.87;;
71288;SDS011;59068;52.502;9.860;2022-07-11T04:17:10;3.43;;;3.10;;
71288;SDS011;59068;52.502;9.860;2022-07-11T04:19:35;3.30;;;2.57;;
71288;SDS011;59068;52.502;9.860;2022-07-11T04:22:01;3.47;;;2.80;;
71288;SDS011;59068;52.502;9.860;2022-07-11T04:24:27;4.37;;;2.70;;
71288;SDS011;59068;52.502;9.860;2022-07-11T04:26:52;3.37;;;2.70;;
71288;SDS011;59068;52.502;9.860;2022-07-11T04:29:18;3.20;;;2.90;;
71288;SDS011;59068;52.502;9.860;2022-07-11T04:31:43;3.40;;;3.10;;
71288;SDS011;59068;52.502;9.860;2022-07-11T04:34:08;4.90;;;3.50;;
71288;SDS011;59068;52.502;9.860;2022-07-11T04:36:34;5.10;;;3.47;;
71288;SDS011;59068;52.502;9.860;2022-07-11T04:38:59;3.77;;;3.10;;
71288;SDS011;59068;52.502;9.860;2022-07-11T04:41:25;4.53;;;3.50;;
71288;SDS011;59068;52.502;9.860;2022-07-11T04:43:50;4.13;;;3.60;;
71288;SDS011;59068;52.502;9.860;2022-07-11T04:46:16;8.07;;;3.90;;
71288;SDS011;59068;52.502;9.860;2022-07-11T04:48:41;5.10;;;3.60;;
71288;SDS011;59068;52.502;9.860;2022-07-11T04:51:07;7.13;;;3.50;;
71288;SDS011;59068;52.502;9.860;2022-07-11T04:53:33;3.73;;;3.10;;
71288;SDS011;59068;52.502;9.860;2022-07-11T04:55:59;3.23;;;2.83;;
71288;SDS011;59068;52.502;9.860;2022-07-11T04:58:24;5.23;;;3.47;;
71288;SDS011;59068;52.502;9.860;2022-07-11T05:00:50;4.47;;;2.73;;
71288;SDS011;59068;52.502;9.860;2022-07-11T05:03:16;3.70;;;3.27;;
71288;SDS011;59068;52.502;9.860;2022-07-11T05:05:42;4.50;;;3.20;;
71288;SDS011;59068;52.502;9.860;2022-07-11T05:08:07;5.93;;;3.07;;
71288;SDS011;59068;52.502;9.860;2022-07-11T05:10:33;6.17;;;3.20;;
71288;SDS011;59068;52.502;9.860;2022-07-11T05:13:01;5.10;;;3.07;;
71288;SDS011;59068;52.502;9.860;2022-07-11T05:15:26;4.07;;;3.00;;
71288;SDS011;59068;52.502;9.860;2022-07-11T05:17:52;3.00;;;2.67;;
71288;SDS011;59068;52.502;9.860;2022-07-11T05:20:18;4.50;;;3.30;;
71288;SDS011;59068;52.502;9.860;2022-07-11T05:22:43;4.47;;;3.37;;
71288;SDS011;59068;52.502;9.860;2022-07-11T05:25:09;5.77;;;2.97;;
71288;SDS011;59068;52.502;9.860;2022-07-11T05:27:34;6.53;;;3.00;;
71288;SDS011;59068;52.502;9.860;2022-07-11T05:30:00;3.83;;;2.90;;
71288;SDS011;59068;52.502;9.860;2022-07-11T05:32:26;6.23;;;2.97;;
71288;SDS011;59068;52.502;9.860;2022-07-11T05:34:51;3.47;;;3.20;;
71288;SDS011;59068;52.502;9.860;2022-07-11T05:37:17;3.47;;;2.90;;
71288;SDS011;59068;52.502;9.860;2022-07-11T05:39:42;4.17;;;2.33;;
71288;SDS011;59068;52.502;9.860;2022-07-11T05:42:07;3.33;;;2.20;;
71288;SDS011;59068;52.502;9.860;2022-07-11T05:44:33;2.87;;;2.23;;
71288;SDS011;59068;52.502;9.860;2022-07-11T05:47:01;1.73;;;1.60;;
71288;SDS011;59068;52.502;9.860;2022-07-11T05:49:27;2.10;;;1.60;;
71288;SDS011;59068;52.502;9.860;2022-07-11T05:51:52;2.47;;;1.57;;
71288;SDS011;59068;52.502;9.860;2022-07-11T05:54:18;2.80;;;1.70;;
71288;SDS011;59068;52.502;9.860;2022-07-11T05:56:43;2.20;;;1.40;;
71288;SDS011;59068;52.502;9.860;2022-07-11T05:59:09;1.70;;;1.50;;
71288;SDS011;59068;52.502;9.860;2022-07-11T06:01:34;1.30;;;1.20;;
71288;SDS011;59068;52.502;9.860;2022-07-11T06:04:00;3.07;;;1.80;;
71288;SDS011;59068;52.502;9.860;2022-07-11T06:06:26;1.70;;;1.60;;
71288;SDS011;59068;52.502;9.860;2022-07-11T06:08:52;1.63;;;1.30;;
71288;SDS011;59068;52.502;9.860;2022-07-11T06:11:18;7.90;;;7.10;;
71288;SDS011;59068;52.502;9.860;2022-07-11T06:13:44;4.23;;;1.73;;
71288;SDS011;59068;52.502;9.860;2022-07-11T06:16:10;1.83;;;1.43;;
71288;SDS011;59068;52.502;9.860;2022-07-11T06:18:36;1.67;;;1.57;;
71288;SDS011;59068;52.502;9.860;2022-07-11T06:21:03;3.50;;;1.60;;
71288;SDS011;59068;52.502;9.860;2022-07-11T06:23:29;1.70;;;1.60;;
71288;SDS011;59068;52.502;9.860;2022-07-11T06:25:55;2.33;;;1.50;;
71288;SDS011;59068;52.502;9.860;2022-07-11T06:28:21;6.50;;;2.00;;
71288;SDS011;59068;52.502;9.860;2022-07-11T06:30:47;2.77;;;1.73;;
71288;SDS011;59068;52.502;9.860;2022-07-11T06:33:14;2.60;;;1.77;;
71288;SDS011;59068;52.502;9.860;2022-07-11T06:35:43;5.63;;;2.03;;
71288;SDS011;59068;52.502;9.860;2022-07-11T06:38:10;2.83;;;1.93;;
71288;SDS011;59068;52.502;9.860;2022-07-11T06:40:35;2.87;;;1.90;;
71288;SDS011;59068;52.502;9.860;2022-07-11T06:43:01;3.83;;;1.80;;
71288;SDS011;59068;52.502;9.860;2022-07-11T06:45:27;2.20;;;1.90;;
71288;SDS011;59068;52.502;9.860;2022-07-11T06:47:52;3.77;;;1.70;;
71288;SDS011;59068;52.502;9.860;2022-07-11T06:50:18;2.17;;;1.40;;
71288;SDS011;59068;52.502;9.860;2022-07-11T06:52:43;1.67;;;1.27;;
71288;SDS011;59068;52.502;9.860;2022-07-11T06:55:11;2.33;;;1.50;;
71288;SDS011;59068;52.502;9.860;2022-07-11T06:57:36;1.50;;;1.23;;
71288;SDS011;59068;52.502;9.860;2022-07-11T07:00:02;2.67;;;1.40;;
71288;SDS011;59068;52.502;9.860;2022-07-11T07:02:29;1.63;;;1.40;;
71288;SDS011;59068;52.502;9.860;2022-07-11T07:04:55;2.07;;;1.40;;
71288;SDS011;59068;52.502;9.860;2022-07-11T07:07:23;1.83;;;1.40;;
71288;SDS011;59068;52.502;9.860;2022-07-11T07:09:49;2.90;;;1.63;;
71288;SDS011;59068;52.502;9.860;2022-07-11T07:12:14;3.67;;;1.80;;
71288;SDS011;59068;52.502;9.860;2022-07-11T07:14:40;1.73;;;1.37;;
71288;SDS011;59068;52.502;9.860;2022-07-11T07:17:06;2.83;;;1.50;;
71288;SDS011;59068;52.502;9.860;2022-07-11T07:19:31;1.87;;;1.20;;
71288;SDS011;59068;52.502;9.860;2022-07-11T07:21:57;2.00;;;1.20;;
71288;SDS011;59068;52.502;9.860;2022-07-11T07:24:23;3.33;;;1.43;;
71288;SDS011;59068;52.502;9.860;2022-07-11T07:26:48;2.43;;;1.40;;
71288;SDS011;59068;52.502;9.860;2022-07-11T07:29:14;1.43;;;1.00;;
71288;SDS011;59068;52.502;9.860;2022-07-11T07:31:39;3.23;;;1.23;;
71288;SDS011;59068;52.502;9.860;2022-07-11T07:34:05;2.53;;;1.30;;
71288;SDS011;59068;52.502;9.860;2022-07-11T07:36:30;1.10;;;1.00;;
71288;SDS011;59068;52.502;9.860;2022-07-11T07:38:56;3.07;;;1.20;;
71288;SDS011;59068;52.502;9.860;2022-07-11T07:41:21;1.30;;;1.20;;
71288;SDS011;59068;52.502;9.860;2022-07-11T07:43:47;1.30;;;1.20;;
71288;SDS011;59068;52.502;9.860;2022-07-11T07:46:16;1.63;;;1.00;;
71288;SDS011;59068;52.502;9.860;2022-07-11T07:48:42;2.20;;;1.13;;
71288;SDS011;59068;52.502;9.860;2022-07-11T07:51:08;4.07;;;1.50;;
71288;SDS011;59068;52.502;9.860;2022-07-11T07:53:34;0.87;;;0.87;;
71288;SDS011;59068;52.502;9.860;2022-07-11T07:55:59;1.43;;;1.33;;
71288;SDS011;59068;52.502;9.860;2022-07-11T07:58:25;1.30;;;1.20;;
71288;SDS011;59068;52.502;9.860;2022-07-11T08:00:51;1.57;;;1.13;;
71288;SDS011;59068;52.502;9.860;2022-07-11T08:03:35;2.20;;;1.27;;
71288;SDS011;59068;52.502;9.860;2022-07-11T08:06:00;4.63;;;1.53;;
71288;SDS011;59068;52.502;9.860;2022-07-11T08:08:26;4.07;;;1.50;;
71288;SDS011;59068;52.502;9.860;2022-07-11T08:10:51;4.27;;;1.60;;
71288;SDS011;59068;52.502;9.860;2022-07-11T08:13:17;1.97;;;1.70;;
71288;SDS011;59068;52.502;9.860;2022-07-11T08:15:43;1.53;;;1.43;;
71288;SDS011;59068;52.502;9.860;2022-07-11T08:18:09;3.10;;;1.47;;
71288;SDS011;59068;52.502;9.860;2022-07-11T08:20:34;1.50;;;1.20;;
71288;SDS011;59068;52.502;9.860;2022-07-11T08:23:00;1.30;;;1.20;;
71288;SDS011;59068;52.502;9.860;2022-07-11T08:25:26;1.43;;;1.27;;
71288;SDS011;59068;52.502;9.860;2022-07-11T08:27:51;2.00;;;1.57;;
71288;SDS011;59068;52.502;9.860;2022-07-11T08:30:17;1.60;;;1.50;;
71288;SDS011;59068;52.502;9.860;2022-07-11T08:32:42;1.77;;;1.43;;
71288;SDS011;59068;52.502;9.860;2022-07-11T08:35:08;2.13;;;1.37;;
71288;SDS011;59068;52.502;9.860;2022-07-11T08:37:34;3.00;;;1.50;;
71288;SDS011;59068;52.502;9.860;2022-07-11T08:40:01;3.00;;;1.83;;
71288;SDS011;59068;52.502;9.860;2022-07-11T08:42:28;1.33;;;1.23;;
71288;SDS011;59068;52.502;9.860;2022-07-11T08:44:55;1.60;;;1.20;;
71288;SDS011;59068;52.502;9.860;2022-07-11T08:47:22;2.00;;;1.20;;
71288;SDS011;59068;52.502;9.860;2022-07-11T08:49:48;1.53;;;1.07;;
71288;SDS011;59068;52.502;9.860;2022-07-11T08:52:14;1.47;;;1.00;;
71288;SDS011;59068;52.502;9.860;2022-07-11T08:54:40;3.17;;;1.10;;
71288;SDS011;59068;52.502;9.860;2022-07-11T08:57:05;4.57;;;1.17;;
71288;SDS011;59068;52.502;9.860;2022-07-11T08:59:31;1.93;;;1.07;;
71288;SDS011;59068;52.502;9.860;2022-07-11T09:01:59;1.77;;;1.10;;
71288;SDS011;59068;52.502;9.860;2022-07-11T09:04:27;3.93;;;1.03;;
71288;SDS011;59068;52.502;9.860;2022-07-11T09:06:54;0.80;;;0.80;;
71288;SDS011;59068;52.502;9.860;2022-07-11T09:11:52;1.03;;;0.90;;
71288;SDS011;59068;52.502;9.860;2022-07-11T09:16:55;1.43;;;0.90;;
71288;SDS011;59068;52.502;9.860;2022-07-11T09:19:25;1.27;;;0.80;;
71288;SDS011;59068;52.502;9.860;2022-07-11T09:22:12;1.57;;;0.80;;
71288;SDS011;59068;52.502;9.860;2022-07-11T09:27:53;1.70;;;0.90;;
71288;SDS011;59068;52.502;9.860;2022-07-11T09:30:37;1.40;;;0.70;;
71288;SDS011;59068;52.502;9.860;2022-07-11T09:33:11;1.43;;;0.80;;
71288;SDS011;59068;52.502;9.860;2022-07-11T09:35:41;1.90;;;0.77;;
71288;SDS011;59068;52.502;9.860;2022-07-11T09:38:11;0.57;;;0.57;;
71288;SDS011;59068;52.502;9.860;2022-07-11T09:40:37;1.23;;;0.70;;
71288;SDS011;59068;52.502;9.860;2022-07-11T09:43:03;1.27;;;0.80;;
71288;SDS011;59068;52.502;9.860;2022-07-11T09:45:33;2.30;;;1.07;;
71288;SDS011;59068;52.502;9.860;2022-07-11T09:48:01;0.90;;;0.80;;
71288;SDS011;59068;52.502;9.860;2022-07-11T09:50:32;1.50;;;1.07;;
71288;SDS011;59068;52.502;9.860;2022-07-11T09:55:28;0.87;;;0.87;;
71288;SDS011;59068;52.502;9.860;2022-07-11T09:57:54;1.90;;;0.90;;
71288;SDS011;59068;52.502;9.860;2022-07-11T10:00:20;0.80;;;0.60;;
71288;SDS011;59068;52.502;9.860;2022-07-11T10:02:45;1.70;;;0.70;;
71288;SDS011;59068;52.502;9.860;2022-07-11T10:05:11;1.23;;;0.70;;
71288;SDS011;59068;52.502;9.860;2022-07-11T10:07:36;1.90;;;0.50;;
71288;SDS011;59068;52.502;9.860;2022-07-11T10:10:03;0.40;;;0.40;;
71288;SDS011;59068;52.502;9.860;2022-07-11T10:12:30;1.27;;;0.57;;
71288;SDS011;59068;52.502;9.860;2022-07-11T10:14:58;0.63;;;0.53;;
71288;SDS011;59068;52.502;9.860;2022-07-11T10:20:25;1.27;;;0.60;;
71288;SDS011;59068;52.502;9.860;2022-07-11T10:31:03;0.77;;;0.20;;
71288;SDS011;59068;52.502;9.860;2022-07-11T10:33:29;0.60;;;0.23;;
71288;SDS011;59068;52.502;9.860;2022-07-11T10:35:56;0.20;;;0.20;;
71288;SDS011;59068;52.502;9.860;2022-07-11T10:38:23;0.50;;;0.20;;
71288;SDS011;59068;52.502;9.860;2022-07-11T10:43:31;0.37;;;0.30;;
71288;SDS011;59068;52.502;9.860;2022-07-11T10:46:08;0.30;;;0.20;;
71288;SDS011;59068;52.502;9.860;2022-07-11T10:48:35;0.20;;;0.20;;
71288;SDS011;59068;52.502;9.860;2022-07-11T10:53:36;0.67;;;0.30;;
71288;SDS011;59068;52.502;9.860;2022-07-11T10:56:13;0.33;;;0.33;;
71288;SDS011;59068;52.502;9.860;2022-07-11T10:58:45;0.30;;;0.30;;
71288;SDS011;59068;52.502;9.860;2022-07-11T11:01:21;0.30;;;0.30;;
71288;SDS011;59068;52.502;9.860;2022-07-11T11:03:46;1.40;;;0.30;;
71288;SDS011;59068;52.502;9.860;2022-07-11T11:06:12;0.70;;;0.50;;
71288;SDS011;59068;52.502;9.860;2022-07-11T11:11:06;0.50;;;0.50;;
71288;SDS011;59068;52.502;9.860;2022-07-11T11:13:33;0.73;;;0.40;;
71288;SDS011;59068;52.502;9.860;2022-07-11T11:16:24;0.67;;;0.43;;
71288;SDS011;59068;52.502;9.860;2022-07-11T11:18:49;1.47;;;0.57;;
71288;SDS011;59068;52.502;9.860;2022-07-11T11:21:15;1.37;;;0.87;;
71288;SDS011;59068;52.502;9.860;2022-07-11T11:31:30;1.03;;;0.80;;
71288;SDS011;59068;52.502;9.860;2022-07-11T11:33:57;1.10;;;1.00;;
71288;SDS011;59068;52.502;9.860;2022-07-11T11:36:23;1.20;;;1.10;;
71288;SDS011;59068;52.502;9.860;2022-07-11T11:38:50;0.93;;;0.93;;
71288;SDS011;59068;52.502;9.860;2022-07-11T11:41:22;1.37;;;1.10;;
71288;SDS011;59068;52.502;9.860;2022-07-11T11:43:48;1.40;;;1.20;;
71288;SDS011;59068;52.502;9.860;2022-07-11T11:46:14;1.53;;;1.10;;
71288;SDS011;59068;52.502;9.860;2022-07-11T11:48:40;1.00;;;1.00;;
71288;SDS011;59068;52.502;9.860;2022-07-11T11:51:15;1.20;;;1.20;;
71288;SDS011;59068;52.502;9.860;2022-07-11T11:53:42;1.20;;;1.10;;
71288;SDS011;59068;52.502;9.860;2022-07-11T11:56:31;0.90;;;0.90;;
71288;SDS011;59068;52.502;9.860;2022-07-11T11:59:02;1.23;;;1.23;;
71288;SDS011;59068;52.502;9.860;2022-07-11T12:01:30;1.40;;;1.40;;
71288;SDS011;59068;52.502;9.860;2022-07-11T12:03:58;12.30;;;3.00;;
71288;SDS011;59068;52.502;9.860;2022-07-11T12:06:30;1.60;;;1.50;;
71288;SDS011;59068;52.502;9.860;2022-07-11T12:09:03;1.50;;;1.40;;
71288;SDS011;59068;52.502;9.860;2022-07-11T12:11:30;0.77;;;0.77;;
71288;SDS011;59068;52.502;9.860;2022-07-11T12:13:59;0.80;;;0.80;;
71288;SDS011;59068;52.502;9.860;2022-07-11T12:16:28;1.60;;;0.50;;
71288;SDS011;59068;52.502;9.860;2022-07-11T12:19:17;0.77;;;0.70;;
71288;SDS011;59068;52.502;9.860;2022-07-11T12:21:45;3.97;;;1.30;;
71288;SDS011;59068;52.502;9.860;2022-07-11T12:24:12;1.20;;;0.73;;
71288;SDS011;59068;52.502;9.860;2022-07-11T12:26:41;0.80;;;0.80;;
71288;SDS011;59068;52.502;9.860;2022-07-11T12:31:54;0.70;;;0.70;;
71288;SDS011;59068;52.502;9.860;2022-07-11T12:34:41;1.53;;;0.60;;
71288;SDS011;59068;52.502;9.860;2022-07-11T12:37:09;0.70;;;0.70;;
71288;SDS011;59068;52.502;9.860;2022-07-11T12:39:52;1.07;;;0.97;;
71288;SDS011;59068;52.502;9.860;2022-07-11T12:42:42;1.37;;;1.20;;
71288;SDS011;59068;52.502;9.860;2022-07-11T12:45:08;1.20;;;1.20;;
71288;SDS011;59068;52.502;9.860;2022-07-11T12:47:46;1.10;;;1.07;;
71288;SDS011;59068;52.502;9.860;2022-07-11T12:52:43;1.53;;;1.10;;
71288;SDS011;59068;52.502;9.860;2022-07-11T12:55:19;0.93;;;0.93;;
71288;SDS011;59068;52.502;9.860;2022-07-11T13:00:31;1.00;;;0.90;;
71288;SDS011;59068;52.502;9.860;2022-07-11T13:02:57;1.63;;;1.10;;
71288;SDS011;59068;52.502;9.860;2022-07-11T13:05:23;0.80;;;0.80;;
71288;SDS011;59068;52.502;9.860;2022-07-11T13:07:49;1.00;;;1.00;;
71288;SDS011;59068;52.502;9.860;2022-07-11T13:10:33;1.00;;;1.00;;
71288;SDS011;59068;52.502;9.860;2022-07-11T13:13:18;1.17;;;1.17;;
71288;SDS011;59068;52.502;9.860;2022-07-11T13:15:44;1.10;;;1.10;;
71288;SDS011;59068;52.502;9.860;2022-07-11T13:18:11;1.13;;;1.00;;
71288;SDS011;59068;52.502;9.860;2022-07-11T13:20:38;1.03;;;1.03;;
71288;SDS011;59068;52.502;9.860;2022-07-11T13:23:04;0.90;;;0.90;;
71288;SDS011;59068;52.502;9.860;2022-07-11T13:25:30;1.23;;;1.13;;
71288;SDS011;59068;52.502;9.860;2022-07-11T13:27:55;1.30;;;0.90;;
71288;SDS011;59068;52.502;9.860;2022-07-11T13:30:21;1.10;;;1.10;;
71288;SDS011;59068;52.502;9.860;2022-07-11T13:32:51;0.70;;;0.70;;
71288;SDS011;59068;52.502;9.860;2022-07-11T13:35:17;1.03;;;0.70;;
71288;SDS011;59068;52.502;9.860;2022-07-11T13:37:43;0.80;;;0.80;;
71288;SDS011;59068;52.502;9.860;2022-07-11T13:40:11;1.43;;;0.70;;
71288;SDS011;59068;52.502;9.860;2022-07-11T13:42:38;1.00;;;0.67;;
71288;SDS011;59068;52.502;9.860;2022-07-11T13:45:04;0.50;;;0.50;;
71288;SDS011;59068;52.502;9.860;2022-07-11T13:47:31;0.60;;;0.60;;
71288;SDS011;59068;52.502;9.860;2022-07-11T13:49:58;0.60;;;0.60;;
71288;SDS011;59068;52.502;9.860;2022-07-11T13:52:23;0.67;;;0.67;;
71288;SDS011;59068;52.502;9.860;2022-07-11T13:54:49;0.40;;;0.40;;
71288;SDS011;59068;52.502;9.860;2022-07-11T13:57:14;0.30;;;0.30;;
71288;SDS011;59068;52.502;9.860;2022-07-11T13:59:40;0.20;;;0.20;;
71288;SDS011;59068;52.502;9.860;2022-07-11T14:02:06;0.40;;;0.40;;
71288;SDS011;59068;52.502;9.860;2022-07-11T14:04:34;0.57;;;0.40;;
71288;SDS011;59068;52.502;9.860;2022-07-11T14:07:00;0.50;;;0.50;;
71288;SDS011;59068;52.502;9.860;2022-07-11T14:09:29;0.50;;;0.50;;
71288;SDS011;59068;52.502;9.860;2022-07-11T14:11:54;0.30;;;0.30;;
71288;SDS011;59068;52.502;9.860;2022-07-11T14:14:20;0.30;;;0.30;;
71288;SDS011;59068;52.502;9.860;2022-07-11T14:16:45;1.50;;;0.30;;
71288;SDS011;59068;52.502;9.860;2022-07-11T14:19:11;0.10;;;0.10;;
71288;SDS011;59068;52.502;9.860;2022-07-11T14:21:37;0.20;;;0.10;;
71288;SDS011;59068;52.502;9.860;2022-07-11T14:24:03;0.30;;;0.23;;
71288;SDS011;59068;52.502;9.860;2022-07-11T14:26:29;0.80;;;0.20;;
71288;SDS011;59068;52.502;9.860;2022-07-11T14:28:54;1.33;;;0.30;;
71288;SDS011;59068;52.502;9.860;2022-07-11T14:31:20;0.63;;;0.27;;
71288;SDS011;59068;52.502;9.860;2022-07-11T14:33:47;0.47;;;0.20;;
71288;SDS011;59068;52.502;9.860;2022-07-11T14:36:14;0.20;;;0.20;;
71288;SDS011;59068;52.502;9.860;2022-07-11T14:38:39;0.30;;;0.30;;
71288;SDS011;59068;52.502;9.860;2022-07-11T14:41:05;0.30;;;0.30;;
71288;SDS011;59068;52.502;9.860;2022-07-11T14:43:30;1.53;;;0.40;;
71288;SDS011;59068;52.502;9.860;2022-07-11T14:45:56;0.60;;;0.40;;
71288;SDS011;59068;52.502;9.860;2022-07-11T14:48:21;0.83;;;0.37;;
71288;SDS011;59068;52.502;9.860;2022-07-11T14:50:47;0.30;;;0.30;;
71288;SDS011;59068;52.502;9.860;2022-07-11T14:53:12;0.50;;;0.40;;
71288;SDS011;59068;52.502;9.860;2022-07-11T14:55:38;0.30;;;0.30;;
71288;SDS011;59068;52.502;9.860;2022-07-11T14:58:03;0.40;;;0.40;;
71288;SDS011;59068;52.502;9.860;2022-07-11T15:00:29;0.50;;;0.50;;
71288;SDS011;59068;52.502;9.860;2022-07-11T15:02:56;0.40;;;0.40;;
71288;SDS011;59068;52.502;9.860;2022-07-11T15:05:40;0.73;;;0.73;;
71288;SDS011;59068;52.502;9.860;2022-07-11T15:08:06;0.40;;;0.33;;
71288;SDS011;59068;52.502;9.860;2022-07-11T15:10:50;0.33;;;0.33;;
71288;SDS011;59068;52.502;9.860;2022-07-11T15:13:34;1.20;;;0.30;;
71288;SDS011;59068;52.502;9.860;2022-07-11T15:15:59;0.63;;;0.30;;
71288;SDS011;59068;52.502;9.860;2022-07-11T15:18:24;0.50;;;0.30;;
71288;SDS011;59068;52.502;9.860;2022-07-11T15:20:50;0.43;;;0.30;;
71288;SDS011;59068;52.502;9.860;2022-07-11T15:23:15;0.40;;;0.40;;
71288;SDS011;59068;52.502;9.860;2022-07-11T15:25:41;1.43;;;0.40;;
71288;SDS011;59068;52.502;9.860;2022-07-11T15:28:06;0.63;;;0.30;;
71288;SDS011;59068;52.502;9.860;2022-07-11T15:30:32;0.40;;;0.40;;
71288;SDS011;59068;52.502;9.860;2022-07-11T15:32:57;1.23;;;0.40;;